sensor_id;sensor_type;location;lat;lon;timestamp;P1;durP1;ratioP1;P2;durP2;ratioP2
1024;SDS011;501;48.214;11.350;2023-03-29T00:00:25;5.73;;;4.03;;
1024;SDS011;501;48.214;11.350;2023-03-29T00:02:51;5.40;;;4.40;;
1024;SDS011;501;48.214;11.350;2023-03-29T00:05:20;5.30;;;3.90;;
1024;SDS011;501;48.214;11.350;2023-03-29T00:07:47;3.83;;;3.53;;
1024;SDS011;501;48.214;11.350;2023-03-29T00:10:18;4.07;;;3.67;;
1024;SDS011;501;48.214;11.350;2023-03-29T00:12:48;3.70;;;3.23;;
1024;SDS011;501;48.214;11.350;2023-03-29T00:15:16;4.57;;;3.57;;
1024;SDS011;501;48.214;11.350;2023-03-29T00:17:42;4.73;;;4.17;;
1024;SDS011;501;48.214;11.350;2023-03-29T00:20:08;4.77;;;3.47;;
1024;SDS011;501;48.214;11.350;2023-03-29T00:22:38;3.67;;;2.93;;
1024;SDS011;501;48.214;11.350;2023-03-29T00:25:06;4.67;;;3.27;;
1024;SDS011;501;48.214;11.350;2023-03-29T00:27:33;1.90;;;1.70;;
1024;SDS011;501;48.214;11.350;2023-03-29T00:29:59;1.90;;;1.63;;
1024;SDS011;501;48.214;11.350;2023-03-29T00:32:28;7.83;;;2.70;;
1024;SDS011;501;48.214;11.350;2023-03-29T00:34:54;4.00;;;3.47;;
1024;SDS011;501;48.214;11.350;2023-03-29T00:37:20;3.20;;;2.50;;
1024;SDS011;501;48.214;11.350;2023-03-29T00:39:50;2.47;;;2.03;;
1024;SDS011;501;48.214;11.350;2023-03-29T00:42:16;2.47;;;2.27;;
1024;SDS011;501;48.214;11.350;2023-03-29T00:47:45;1.60;;;1.50;;
1024;SDS011;501;48.214;11.350;2023-03-29T00:52:52;1.57;;;1.40;;
1024;SDS011;501;48.214;11.350;2023-03-29T00:55:23;3.37;;;1.80;;
1024;SDS011;501;48.214;11.350;2023-03-29T00:57:51;1.60;;;1.50;;
1024;SDS011;501;48.214;11.350;2023-03-29T01:00:21;3.73;;;1.77;;
1024;SDS011;501;48.214;11.350;2023-03-29T01:02:55;1.63;;;1.53;;
1024;SDS011;501;48.214;11.350;2023-03-29T01:05:27;1.60;;;1.50;;
1024;SDS011;501;48.214;11.350;2023-03-29T01:07:57;2.00;;;1.40;;
1024;SDS011;501;48.214;11.350;2023-03-29T01:12:57;1.70;;;1.57;;
1024;SDS011;501;48.214;11.350;2023-03-29T01:15:46;2.93;;;1.57;;
1024;SDS011;501;48.214;11.350;2023-03-29T01:18:12;1.73;;;1.63;;
1024;SDS011;501;48.214;11.350;2023-03-29T01:20:53;1.80;;;1.63;;
1024;SDS011;501;48.214;11.350;2023-03-29T01:29:08;2.30;;;2.10;;
1024;SDS011;501;48.214;11.350;2023-03-29T01:31:51;2.60;;;2.00;;
1024;SDS011;501;48.214;11.350;2023-03-29T01:34:24;2.27;;;1.77;;
1024;SDS011;501;48.214;11.350;2023-03-29T01:37:19;2.43;;;1.97;;
1024;SDS011;501;48.214;11.350;2023-03-29T01:39:49;2.20;;;2.00;;
1024;SDS011;501;48.214;11.350;2023-03-29T01:42:26;2.17;;;1.90;;
1024;SDS011;501;48.214;11.350;2023-03-29T01:50:52;2.00;;;1.43;;
1024;SDS011;501;48.214;11.350;2023-03-29T01:56:26;2.20;;;1.70;;
1024;SDS011;501;48.214;11.350;2023-03-29T01:58:58;2.03;;;1.70;;
1024;SDS011;501;48.214;11.350;2023-03-29T02:01:27;3.50;;;2.50;;
1024;SDS011;501;48.214;11.350;2023-03-29T02:03:58;2.13;;;1.93;;
1024;SDS011;501;48.214;11.350;2023-03-29T02:06:27;1.67;;;1.57;;
1024;SDS011;501;48.214;11.350;2023-03-29T02:08:56;1.60;;;1.50;;
1024;SDS011;501;48.214;11.350;2023-03-29T02:11:23;4.30;;;2.73;;
1024;SDS011;501;48.214;11.350;2023-03-29T02:13:51;3.07;;;2.13;;
1024;SDS011;501;48.214;11.350;2023-03-29T02:16:17;2.57;;;2.13;;
1024;SDS011;501;48.214;11.350;2023-03-29T02:18:44;2.10;;;1.87;;
1024;SDS011;501;48.214;11.350;2023-03-29T02:21:15;2.13;;;1.60;;
1024;SDS011;501;48.214;11.350;2023-03-29T02:23:54;2.17;;;1.47;;
1024;SDS011;501;48.214;11.350;2023-03-29T02:26:23;1.77;;;1.60;;
1024;SDS011;501;48.214;11.350;2023-03-29T02:28:49;2.03;;;1.53;;
1024;SDS011;501;48.214;11.350;2023-03-29T02:33:49;2.73;;;1.83;;
1024;SDS011;501;48.214;11.350;2023-03-29T02:38:48;7.80;;;1.67;;
1024;SDS011;501;48.214;11.350;2023-03-29T02:41:16;1.77;;;1.50;;
1024;SDS011;501;48.214;11.350;2023-03-29T02:43:42;1.60;;;1.50;;
1024;SDS011;501;48.214;11.350;2023-03-29T02:46:10;5.27;;;3.90;;
1024;SDS011;501;48.214;11.350;2023-03-29T02:48:37;3.77;;;3.37;;
1024;SDS011;501;48.214;11.350;2023-03-29T02:51:04;2.30;;;2.07;;
1024;SDS011;501;48.214;11.350;2023-03-29T02:53:41;2.10;;;1.60;;
1024;SDS011;501;48.214;11.350;2023-03-29T02:56:13;1.20;;;1.20;;
1024;SDS011;501;48.214;11.350;2023-03-29T02:58:39;2.03;;;1.50;;
1024;SDS011;501;48.214;11.350;2023-03-29T03:01:05;2.00;;;1.30;;
1024;SDS011;501;48.214;11.350;2023-03-29T03:03:31;1.50;;;1.17;;
1024;SDS011;501;48.214;11.350;2023-03-29T03:05:57;2.13;;;1.83;;
1024;SDS011;501;48.214;11.350;2023-03-29T03:08:25;2.57;;;1.40;;
1024;SDS011;501;48.214;11.350;2023-03-29T03:10:51;2.60;;;1.40;;
1024;SDS011;501;48.214;11.350;2023-03-29T03:13:18;1.33;;;1.23;;
1024;SDS011;501;48.214;11.350;2023-03-29T03:15:44;1.87;;;1.77;;
1024;SDS011;501;48.214;11.350;2023-03-29T03:18:13;1.90;;;1.07;;
1024;SDS011;501;48.214;11.350;2023-03-29T03:20:40;1.20;;;1.10;;
1024;SDS011;501;48.214;11.350;2023-03-29T03:23:05;1.30;;;1.20;;
1024;SDS011;501;48.214;11.350;2023-03-29T03:25:33;2.37;;;1.33;;
1024;SDS011;501;48.214;11.350;2023-03-29T03:27:59;0.83;;;0.83;;
1024;SDS011;501;48.214;11.350;2023-03-29T03:30:25;1.70;;;1.23;;
1024;SDS011;501;48.214;11.350;2023-03-29T03:32:51;1.10;;;1.00;;
1024;SDS011;501;48.214;11.350;2023-03-29T03:35:18;1.73;;;1.47;;
1024;SDS011;501;48.214;11.350;2023-03-29T03:37:45;2.37;;;1.30;;
1024;SDS011;501;48.214;11.350;2023-03-29T03:40:12;5.10;;;1.23;;
1024;SDS011;501;48.214;11.350;2023-03-29T03:42:38;1.43;;;1.10;;
1024;SDS011;501;48.214;11.350;2023-03-29T03:45:05;2.17;;;1.50;;
1024;SDS011;501;48.214;11.350;2023-03-29T03:47:32;1.50;;;1.40;;
1024;SDS011;501;48.214;11.350;2023-03-29T03:49:59;1.33;;;1.23;;
1024;SDS011;501;48.214;11.350;2023-03-29T03:52:24;1.23;;;1.07;;
1024;SDS011;501;48.214;11.350;2023-03-29T03:54:51;1.03;;;0.97;;
1024;SDS011;501;48.214;11.350;2023-03-29T03:57:16;4.13;;;1.60;;
1024;SDS011;501;48.214;11.350;2023-03-29T03:59:42;1.30;;;1.20;;
1024;SDS011;501;48.214;11.350;2023-03-29T04:02:08;1.43;;;1.30;;
1024;SDS011;501;48.214;11.350;2023-03-29T04:04:35;1.07;;;1.00;;
1024;SDS011;501;48.214;11.350;2023-03-29T04:07:00;1.60;;;1.10;;
1024;SDS011;501;48.214;11.350;2023-03-29T04:09:30;3.80;;;1.30;;
1024;SDS011;501;48.214;11.350;2023-03-29T04:11:57;1.50;;;1.37;;
1024;SDS011;501;48.214;11.350;2023-03-29T04:14:24;2.10;;;1.10;;
1024;SDS011;501;48.214;11.350;2023-03-29T04:16:50;2.07;;;1.10;;
1024;SDS011;501;48.214;11.350;2023-03-29T04:19:17;1.43;;;1.10;;
1024;SDS011;501;48.214;11.350;2023-03-29T04:21:42;1.80;;;1.20;;
1024;SDS011;501;48.214;11.350;2023-03-29T04:24:10;0.90;;;0.90;;
1024;SDS011;501;48.214;11.350;2023-03-29T04:26:36;1.20;;;1.00;;
1024;SDS011;501;48.214;11.350;2023-03-29T04:29:02;1.10;;;1.00;;
1024;SDS011;501;48.214;11.350;2023-03-29T04:31:29;1.20;;;1.10;;
1024;SDS011;501;48.214;11.350;2023-03-29T04:33:55;3.07;;;2.70;;
1024;SDS011;501;48.214;11.350;2023-03-29T04:36:21;1.00;;;1.00;;
1024;SDS011;501;48.214;11.350;2023-03-29T04:38:47;1.37;;;1.03;;
1024;SDS011;501;48.214;11.350;2023-03-29T04:41:13;1.37;;;1.27;;
1024;SDS011;501;48.214;11.350;2023-03-29T04:43:39;1.70;;;1.50;;
1024;SDS011;501;48.214;11.350;2023-03-29T04:46:06;0.93;;;0.90;;
1024;SDS011;501;48.214;11.350;2023-03-29T04:48:32;1.33;;;1.10;;
1024;SDS011;501;48.214;11.350;2023-03-29T04:50:58;1.53;;;1.00;;
1024;SDS011;501;48.214;11.350;2023-03-29T04:53:24;1.97;;;1.20;;
1024;SDS011;501;48.214;11.350;2023-03-29T04:55:50;1.20;;;1.00;;
1024;SDS011;501;48.214;11.350;2023-03-29T04:58:16;1.07;;;0.83;;
1024;SDS011;501;48.214;11.350;2023-03-29T05:00:42;1.00;;;0.90;;
1024;SDS011;501;48.214;11.350;2023-03-29T05:03:08;1.17;;;1.03;;
1024;SDS011;501;48.214;11.350;2023-03-29T05:05:37;1.13;;;0.80;;
1024;SDS011;501;48.214;11.350;2023-03-29T05:08:03;1.33;;;0.97;;
1024;SDS011;501;48.214;11.350;2023-03-29T05:10:29;4.20;;;1.00;;
1024;SDS011;501;48.214;11.350;2023-03-29T05:12:54;1.20;;;1.00;;
1024;SDS011;501;48.214;11.350;2023-03-29T05:15:20;1.13;;;1.03;;
1024;SDS011;501;48.214;11.350;2023-03-29T05:17:46;0.80;;;0.80;;
1024;SDS011;501;48.214;11.350;2023-03-29T05:20:12;1.20;;;0.80;;
1024;SDS011;501;48.214;11.350;2023-03-29T05:22:39;1.00;;;0.70;;
1024;SDS011;501;48.214;11.350;2023-03-29T05:25:05;1.90;;;1.43;;
1024;SDS011;501;48.214;11.350;2023-03-29T05:27:32;1.77;;;1.13;;
1024;SDS011;501;48.214;11.350;2023-03-29T05:29:58;0.80;;;0.73;;
1024;SDS011;501;48.214;11.350;2023-03-29T05:32:25;1.20;;;0.87;;
1024;SDS011;501;48.214;11.350;2023-03-29T05:34:51;3.00;;;1.40;;
1024;SDS011;501;48.214;11.350;2023-03-29T05:37:16;2.10;;;0.90;;
1024;SDS011;501;48.214;11.350;2023-03-29T05:39:42;5.13;;;1.30;;
1024;SDS011;501;48.214;11.350;2023-03-29T05:42:09;2.20;;;1.07;;
1024;SDS011;501;48.214;11.350;2023-03-29T05:44:37;1.13;;;0.63;;
1024;SDS011;501;48.214;11.350;2023-03-29T05:47:04;1.13;;;0.87;;
1024;SDS011;501;48.214;11.350;2023-03-29T05:49:30;1.03;;;0.77;;
1024;SDS011;501;48.214;11.350;2023-03-29T05:51:56;3.33;;;1.10;;
1024;SDS011;501;48.214;11.350;2023-03-29T05:54:23;1.37;;;1.10;;
1024;SDS011;501;48.214;11.350;2023-03-29T05:56:49;1.00;;;0.90;;
1024;SDS011;501;48.214;11.350;2023-03-29T05:59:15;3.60;;;1.00;;
1024;SDS011;501;48.214;11.350;2023-03-29T06:01:42;0.97;;;0.90;;
1024;SDS011;501;48.214;11.350;2023-03-29T06:04:10;0.90;;;0.80;;
1024;SDS011;501;48.214;11.350;2023-03-29T06:06:36;0.93;;;0.77;;
1024;SDS011;501;48.214;11.350;2023-03-29T06:09:02;0.93;;;0.83;;
1024;SDS011;501;48.214;11.350;2023-03-29T06:11:29;2.30;;;1.97;;
1024;SDS011;501;48.214;11.350;2023-03-29T06:13:55;1.20;;;0.80;;
1024;SDS011;501;48.214;11.350;2023-03-29T06:16:21;0.80;;;0.80;;
1024;SDS011;501;48.214;11.350;2023-03-29T06:18:47;1.90;;;1.30;;
1024;SDS011;501;48.214;11.350;2023-03-29T06:21:13;5.00;;;0.83;;
1024;SDS011;501;48.214;11.350;2023-03-29T06:23:38;1.00;;;0.90;;
1024;SDS011;501;48.214;11.350;2023-03-29T06:26:05;2.10;;;0.80;;
1024;SDS011;501;48.214;11.350;2023-03-29T06:28:31;3.10;;;1.10;;
1024;SDS011;501;48.214;11.350;2023-03-29T06:30:57;0.87;;;0.87;;
1024;SDS011;501;48.214;11.350;2023-03-29T06:33:29;0.87;;;0.87;;
1024;SDS011;501;48.214;11.350;2023-03-29T06:35:56;3.57;;;1.30;;
1024;SDS011;501;48.214;11.350;2023-03-29T06:38:22;0.87;;;0.87;;
1024;SDS011;501;48.214;11.350;2023-03-29T06:40:48;2.47;;;0.80;;
1024;SDS011;501;48.214;11.350;2023-03-29T06:43:15;1.80;;;0.90;;
1024;SDS011;501;48.214;11.350;2023-03-29T06:45:41;0.60;;;0.60;;
1024;SDS011;501;48.214;11.350;2023-03-29T06:48:07;0.77;;;0.77;;
1024;SDS011;501;48.214;11.350;2023-03-29T06:50:33;0.90;;;0.70;;
1024;SDS011;501;48.214;11.350;2023-03-29T06:53:00;3.13;;;0.70;;
1024;SDS011;501;48.214;11.350;2023-03-29T06:55:26;0.60;;;0.60;;
1024;SDS011;501;48.214;11.350;2023-03-29T06:57:52;0.90;;;0.67;;
1024;SDS011;501;48.214;11.350;2023-03-29T07:00:18;2.93;;;0.90;;
1024;SDS011;501;48.214;11.350;2023-03-29T07:03:06;0.80;;;0.67;;
1024;SDS011;501;48.214;11.350;2023-03-29T07:05:43;0.90;;;0.90;;
1024;SDS011;501;48.214;11.350;2023-03-29T07:08:10;0.90;;;0.90;;
1024;SDS011;501;48.214;11.350;2023-03-29T07:10:39;1.20;;;0.93;;
1024;SDS011;501;48.214;11.350;2023-03-29T07:13:06;1.70;;;1.23;;
1024;SDS011;501;48.214;11.350;2023-03-29T07:15:33;1.83;;;1.00;;
1024;SDS011;501;48.214;11.350;2023-03-29T07:18:00;1.60;;;0.80;;
1024;SDS011;501;48.214;11.350;2023-03-29T07:20:29;1.37;;;0.93;;
1024;SDS011;501;48.214;11.350;2023-03-29T07:22:56;2.73;;;1.00;;
1024;SDS011;501;48.214;11.350;2023-03-29T07:25:23;2.00;;;0.90;;
1024;SDS011;501;48.214;11.350;2023-03-29T07:27:50;1.13;;;1.03;;
1024;SDS011;501;48.214;11.350;2023-03-29T07:30:20;1.10;;;1.00;;
1024;SDS011;501;48.214;11.350;2023-03-29T07:32:48;1.70;;;1.27;;
1024;SDS011;501;48.214;11.350;2023-03-29T07:35:16;1.93;;;1.13;;
1024;SDS011;501;48.214;11.350;2023-03-29T07:37:42;0.90;;;0.60;;
1024;SDS011;501;48.214;11.350;2023-03-29T07:40:12;0.80;;;0.70;;
1024;SDS011;501;48.214;11.350;2023-03-29T07:42:46;1.07;;;0.67;;
1024;SDS011;501;48.214;11.350;2023-03-29T07:45:12;1.00;;;0.90;;
1024;SDS011;501;48.214;11.350;2023-03-29T07:47:40;1.83;;;1.10;;
1024;SDS011;501;48.214;11.350;2023-03-29T07:50:11;2.67;;;1.30;;
1024;SDS011;501;48.214;11.350;2023-03-29T07:52:37;2.57;;;0.80;;
1024;SDS011;501;48.214;11.350;2023-03-29T07:55:07;1.27;;;1.10;;
1024;SDS011;501;48.214;11.350;2023-03-29T07:57:33;1.23;;;1.10;;
1024;SDS011;501;48.214;11.350;2023-03-29T07:59:59;2.30;;;1.27;;
1024;SDS011;501;48.214;11.350;2023-03-29T08:02:34;4.20;;;0.93;;
1024;SDS011;501;48.214;11.350;2023-03-29T08:05:00;1.07;;;1.00;;
1024;SDS011;501;48.214;11.350;2023-03-29T08:07:25;2.30;;;1.40;;
1024;SDS011;501;48.214;11.350;2023-03-29T08:09:51;1.87;;;0.67;;
1024;SDS011;501;48.214;11.350;2023-03-29T08:12:17;1.23;;;0.80;;
1024;SDS011;501;48.214;11.350;2023-03-29T08:14:43;0.53;;;0.53;;
1024;SDS011;501;48.214;11.350;2023-03-29T08:17:08;2.30;;;0.80;;
1024;SDS011;501;48.214;11.350;2023-03-29T08:19:34;1.00;;;0.90;;
1024;SDS011;501;48.214;11.350;2023-03-29T08:22:00;1.50;;;1.07;;
1024;SDS011;501;48.214;11.350;2023-03-29T08:24:26;2.07;;;0.90;;
1024;SDS011;501;48.214;11.350;2023-03-29T08:26:51;1.40;;;0.80;;
1024;SDS011;501;48.214;11.350;2023-03-29T08:29:17;0.60;;;0.60;;
1024;SDS011;501;48.214;11.350;2023-03-29T08:31:43;2.07;;;1.27;;
1024;SDS011;501;48.214;11.350;2023-03-29T08:34:09;1.53;;;1.00;;
1024;SDS011;501;48.214;11.350;2023-03-29T08:36:34;1.23;;;1.13;;
1024;SDS011;501;48.214;11.350;2023-03-29T08:39:00;2.80;;;0.97;;
1024;SDS011;501;48.214;11.350;2023-03-29T08:47:51;2.70;;;1.20;;
1024;SDS011;501;48.214;11.350;2023-03-29T08:50:03;1.77;;;0.93;;
1024;SDS011;501;48.214;11.350;2023-03-29T08:52:32;1.40;;;1.17;;
1024;SDS011;501;48.214;11.350;2023-03-29T08:55:23;1.63;;;0.83;;
1024;SDS011;501;48.214;11.350;2023-03-29T08:57:55;2.03;;;0.87;;
1024;SDS011;501;48.214;11.350;2023-03-29T09:00:36;1.57;;;0.80;;
1024;SDS011;501;48.214;11.350;2023-03-29T09:03:21;1.47;;;1.20;;
1024;SDS011;501;48.214;11.350;2023-03-29T09:06:10;1.00;;;0.73;;
1024;SDS011;501;48.214;11.350;2023-03-29T09:08:38;1.00;;;0.60;;
1024;SDS011;501;48.214;11.350;2023-03-29T09:17:20;2.20;;;1.17;;
1024;SDS011;501;48.214;11.350;2023-03-29T09:19:54;2.03;;;1.50;;
1024;SDS011;501;48.214;11.350;2023-03-29T09:25:02;1.10;;;0.90;;
1024;SDS011;501;48.214;11.350;2023-03-29T09:27:34;1.43;;;0.77;;
1024;SDS011;501;48.214;11.350;2023-03-29T09:30:12;1.47;;;1.00;;
1024;SDS011;501;48.214;11.350;2023-03-29T09:32:52;2.93;;;1.30;;
1024;SDS011;501;48.214;11.350;2023-03-29T09:36:06;1.63;;;1.07;;
1024;SDS011;501;48.214;11.350;2023-03-29T09:38:16;2.10;;;1.30;;
1024;SDS011;501;48.214;11.350;2023-03-29T09:40:46;3.80;;;1.10;;
1024;SDS011;501;48.214;11.350;2023-03-29T09:43:17;1.40;;;1.30;;
1024;SDS011;501;48.214;11.350;2023-03-29T09:45:51;0.80;;;0.73;;
1024;SDS011;501;48.214;11.350;2023-03-29T09:48:20;2.80;;;1.20;;
1024;SDS011;501;48.214;11.350;2023-03-29T09:50:47;0.87;;;0.87;;
1024;SDS011;501;48.214;11.350;2023-03-29T09:53:15;1.90;;;1.03;;
1024;SDS011;501;48.214;11.350;2023-03-29T09:55:43;1.00;;;1.00;;
1024;SDS011;501;48.214;11.350;2023-03-29T09:58:13;1.37;;;1.20;;
1024;SDS011;501;48.214;11.350;2023-03-29T10:00:44;1.87;;;1.00;;
1024;SDS011;501;48.214;11.350;2023-03-29T10:03:16;4.13;;;1.00;;
1024;SDS011;501;48.214;11.350;2023-03-29T10:05:46;1.20;;;1.10;;
1024;SDS011;501;48.214;11.350;2023-03-29T10:08:19;1.73;;;1.17;;
1024;SDS011;501;48.214;11.350;2023-03-29T10:10:51;2.73;;;1.10;;
1024;SDS011;501;48.214;11.350;2023-03-29T10:13:20;0.83;;;0.83;;
1024;SDS011;501;48.214;11.350;2023-03-29T10:16:16;2.20;;;1.20;;
1024;SDS011;501;48.214;11.350;2023-03-29T10:18:43;1.07;;;0.80;;
1024;SDS011;501;48.214;11.350;2023-03-29T10:21:12;1.10;;;1.00;;
1024;SDS011;501;48.214;11.350;2023-03-29T10:23:44;2.00;;;1.40;;
1024;SDS011;501;48.214;11.350;2023-03-29T10:26:14;2.40;;;0.83;;
1024;SDS011;501;48.214;11.350;2023-03-29T10:28:41;1.17;;;1.00;;
1024;SDS011;501;48.214;11.350;2023-03-29T10:31:07;4.37;;;1.33;;
1024;SDS011;501;48.214;11.350;2023-03-29T10:33:42;1.90;;;1.00;;
1024;SDS011;501;48.214;11.350;2023-03-29T10:36:08;4.60;;;1.03;;
1024;SDS011;501;48.214;11.350;2023-03-29T10:38:36;1.37;;;1.27;;
1024;SDS011;501;48.214;11.350;2023-03-29T10:41:09;2.03;;;1.10;;
1024;SDS011;501;48.214;11.350;2023-03-29T10:43:46;1.53;;;1.10;;
1024;SDS011;501;48.214;11.350;2023-03-29T10:48:54;1.70;;;1.20;;
1024;SDS011;501;48.214;11.350;2023-03-29T10:51:27;1.60;;;0.90;;
1024;SDS011;501;48.214;11.350;2023-03-29T10:53:56;1.50;;;1.17;;
1024;SDS011;501;48.214;11.350;2023-03-29T11:01:33;1.27;;;1.00;;
1024;SDS011;501;48.214;11.350;2023-03-29T11:06:36;1.10;;;1.00;;
1024;SDS011;501;48.214;11.350;2023-03-29T11:09:13;3.57;;;1.77;;
1024;SDS011;501;48.214;11.350;2023-03-29T11:11:46;2.40;;;1.20;;
1024;SDS011;501;48.214;11.350;2023-03-29T11:26:08;1.93;;;0.90;;
1024;SDS011;501;48.214;11.350;2023-03-29T11:29:02;3.50;;;0.90;;
1024;SDS011;501;48.214;11.350;2023-03-29T11:31:43;0.87;;;0.83;;
1024;SDS011;501;48.214;11.350;2023-03-29T11:42:30;2.50;;;1.00;;
1024;SDS011;501;48.214;11.350;2023-03-29T11:44:59;1.33;;;1.00;;
1024;SDS011;501;48.214;11.350;2023-03-29T11:47:32;2.10;;;0.90;;
1024;SDS011;501;48.214;11.350;2023-03-29T11:50:13;2.33;;;1.23;;
1024;SDS011;501;48.214;11.350;2023-03-29T11:52:48;2.90;;;1.27;;
1024;SDS011;501;48.214;11.350;2023-03-29T11:55:19;1.30;;;1.00;;
1024;SDS011;501;48.214;11.350;2023-03-29T11:57:54;2.73;;;1.10;;
1024;SDS011;501;48.214;11.350;2023-03-29T12:00:26;0.80;;;0.80;;
1024;SDS011;501;48.214;11.350;2023-03-29T12:03:40;1.80;;;0.77;;
1024;SDS011;501;48.214;11.350;2023-03-29T12:06:15;2.50;;;1.30;;
1024;SDS011;501;48.214;11.350;2023-03-29T12:08:56;4.90;;;1.03;;
1024;SDS011;501;48.214;11.350;2023-03-29T12:11:39;1.20;;;1.10;;
1024;SDS011;501;48.214;11.350;2023-03-29T12:14:13;1.50;;;1.03;;
1024;SDS011;501;48.214;11.350;2023-03-29T12:16:48;4.20;;;1.53;;
1024;SDS011;501;48.214;11.350;2023-03-29T12:19:22;5.73;;;1.30;;
1024;SDS011;501;48.214;11.350;2023-03-29T12:21:54;2.33;;;1.20;;
1024;SDS011;501;48.214;11.350;2023-03-29T12:24:21;5.57;;;1.10;;
1024;SDS011;501;48.214;11.350;2023-03-29T12:27:05;1.90;;;1.40;;
1024;SDS011;501;48.214;11.350;2023-03-29T12:40:10;1.43;;;1.33;;
1024;SDS011;501;48.214;11.350;2023-03-29T12:42:47;1.93;;;1.33;;
1024;SDS011;501;48.214;11.350;2023-03-29T12:45:19;1.50;;;1.03;;
1024;SDS011;501;48.214;11.350;2023-03-29T12:47:52;3.00;;;1.93;;
1024;SDS011;501;48.214;11.350;2023-03-29T12:50:26;0.80;;;0.80;;
1024;SDS011;501;48.214;11.350;2023-03-29T12:53:01;2.10;;;1.10;;
1024;SDS011;501;48.214;11.350;2023-03-29T12:55:31;1.03;;;0.93;;
1024;SDS011;501;48.214;11.350;2023-03-29T12:58:19;1.57;;;1.40;;
1024;SDS011;501;48.214;11.350;2023-03-29T13:00:45;1.27;;;1.17;;
1024;SDS011;501;48.214;11.350;2023-03-29T13:03:28;1.70;;;1.30;;
1024;SDS011;501;48.214;11.350;2023-03-29T13:06:05;1.80;;;1.20;;
1024;SDS011;501;48.214;11.350;2023-03-29T13:11:01;2.93;;;1.13;;
1024;SDS011;501;48.214;11.350;2023-03-29T13:13:32;2.60;;;1.50;;
1024;SDS011;501;48.214;11.350;2023-03-29T13:16:13;3.13;;;1.33;;
1024;SDS011;501;48.214;11.350;2023-03-29T13:18:49;1.53;;;1.30;;
1024;SDS011;501;48.214;11.350;2023-03-29T13:21:20;1.40;;;1.30;;
1024;SDS011;501;48.214;11.350;2023-03-29T13:24:26;2.23;;;1.20;;
1024;SDS011;501;48.214;11.350;2023-03-29T13:37:47;2.10;;;1.23;;
1024;SDS011;501;48.214;11.350;2023-03-29T13:45:43;3.10;;;1.03;;
1024;SDS011;501;48.214;11.350;2023-03-29T13:51:02;5.10;;;1.03;;
1024;SDS011;501;48.214;11.350;2023-03-29T13:53:38;2.53;;;1.20;;
1024;SDS011;501;48.214;11.350;2023-03-29T13:56:09;1.20;;;1.07;;
1024;SDS011;501;48.214;11.350;2023-03-29T13:58:45;2.90;;;1.17;;
1024;SDS011;501;48.214;11.350;2023-03-29T14:04:15;1.80;;;1.10;;
1024;SDS011;501;48.214;11.350;2023-03-29T14:06:47;2.10;;;0.87;;
1024;SDS011;501;48.214;11.350;2023-03-29T14:09:17;0.97;;;0.87;;
1024;SDS011;501;48.214;11.350;2023-03-29T14:11:46;1.37;;;1.00;;
1024;SDS011;501;48.214;11.350;2023-03-29T14:14:12;1.40;;;0.80;;
1024;SDS011;501;48.214;11.350;2023-03-29T14:16:39;2.37;;;0.90;;
1024;SDS011;501;48.214;11.350;2023-03-29T14:19:16;0.90;;;0.70;;
1024;SDS011;501;48.214;11.350;2023-03-29T14:21:45;2.30;;;1.13;;
1024;SDS011;501;48.214;11.350;2023-03-29T14:24:16;1.60;;;1.10;;
1024;SDS011;501;48.214;11.350;2023-03-29T14:26:45;4.07;;;1.13;;
1024;SDS011;501;48.214;11.350;2023-03-29T14:29:12;1.83;;;1.03;;
1024;SDS011;501;48.214;11.350;2023-03-29T14:31:38;2.53;;;1.40;;
1024;SDS011;501;48.214;11.350;2023-03-29T14:34:10;4.17;;;1.50;;
1024;SDS011;501;48.214;11.350;2023-03-29T14:36:38;4.33;;;1.33;;
1024;SDS011;501;48.214;11.350;2023-03-29T14:39:06;1.87;;;0.90;;
1024;SDS011;501;48.214;11.350;2023-03-29T14:41:39;2.50;;;1.17;;
1024;SDS011;501;48.214;11.350;2023-03-29T14:44:12;4.13;;;1.30;;
1024;SDS011;501;48.214;11.350;2023-03-29T14:46:39;2.33;;;1.30;;
1024;SDS011;501;48.214;11.350;2023-03-29T14:49:05;1.63;;;1.20;;
1024;SDS011;501;48.214;11.350;2023-03-29T14:51:31;5.20;;;1.27;;
1024;SDS011;501;48.214;11.350;2023-03-29T14:53:59;2.47;;;1.87;;
1024;SDS011;501;48.214;11.350;2023-03-29T14:56:27;3.43;;;1.20;;
1024;SDS011;501;48.214;11.350;2023-03-29T14:58:53;3.40;;;1.20;;
1024;SDS011;501;48.214;11.350;2023-03-29T15:01:21;2.47;;;1.03;;
1024;SDS011;501;48.214;11.350;2023-03-29T15:03:50;4.93;;;1.50;;
1024;SDS011;501;48.214;11.350;2023-03-29T15:06:36;1.33;;;1.23;;
1024;SDS011;501;48.214;11.350;2023-03-29T15:09:18;2.70;;;0.80;;
1024;SDS011;501;48.214;11.350;2023-03-29T15:11:50;0.77;;;0.77;;
1024;SDS011;501;48.214;11.350;2023-03-29T15:14:20;2.43;;;1.40;;
1024;SDS011;501;48.214;11.350;2023-03-29T15:16:49;4.07;;;1.83;;
1024;SDS011;501;48.214;11.350;2023-03-29T15:19:20;3.50;;;1.10;;
1024;SDS011;501;48.214;11.350;2023-03-29T15:21:49;2.47;;;2.23;;
1024;SDS011;501;48.214;11.350;2023-03-29T15:24:20;2.47;;;1.20;;
1024;SDS011;501;48.214;11.350;2023-03-29T15:27:03;3.47;;;1.67;;
1024;SDS011;501;48.214;11.350;2023-03-29T15:29:39;3.07;;;1.50;;
1024;SDS011;501;48.214;11.350;2023-03-29T15:32:07;6.67;;;1.37;;
1024;SDS011;501;48.214;11.350;2023-03-29T15:34:34;1.43;;;1.30;;
1024;SDS011;501;48.214;11.350;2023-03-29T15:37:02;4.20;;;1.50;;
1024;SDS011;501;48.214;11.350;2023-03-29T15:39:28;3.50;;;1.30;;
1024;SDS011;501;48.214;11.350;2023-03-29T15:41:56;3.13;;;1.90;;
1024;SDS011;501;48.214;11.350;2023-03-29T15:44:26;1.57;;;1.30;;
1024;SDS011;501;48.214;11.350;2023-03-29T15:46:59;2.20;;;1.43;;
1024;SDS011;501;48.214;11.350;2023-03-29T15:49:25;3.23;;;1.50;;
1024;SDS011;501;48.214;11.350;2023-03-29T15:51:51;3.23;;;1.37;;
1024;SDS011;501;48.214;11.350;2023-03-29T15:54:21;2.97;;;1.80;;
1024;SDS011;501;48.214;11.350;2023-03-29T15:56:59;5.13;;;1.57;;
1024;SDS011;501;48.214;11.350;2023-03-29T15:59:29;4.67;;;1.77;;
1024;SDS011;501;48.214;11.350;2023-03-29T16:01:55;4.50;;;2.40;;
1024;SDS011;501;48.214;11.350;2023-03-29T16:04:22;4.10;;;1.60;;
1024;SDS011;501;48.214;11.350;2023-03-29T16:06:49;2.87;;;2.27;;
1024;SDS011;501;48.214;11.350;2023-03-29T16:09:17;3.10;;;1.67;;
1024;SDS011;501;48.214;11.350;2023-03-29T16:11:44;4.73;;;2.63;;
1024;SDS011;501;48.214;11.350;2023-03-29T16:14:21;4.73;;;2.73;;
1024;SDS011;501;48.214;11.350;2023-03-29T16:16:55;4.00;;;2.10;;
1024;SDS011;501;48.214;11.350;2023-03-29T16:19:21;2.83;;;2.10;;
1024;SDS011;501;48.214;11.350;2023-03-29T16:21:48;5.50;;;2.30;;
1024;SDS011;501;48.214;11.350;2023-03-29T16:24:14;2.07;;;1.87;;
1024;SDS011;501;48.214;11.350;2023-03-29T16:26:45;2.20;;;1.80;;
1024;SDS011;501;48.214;11.350;2023-03-29T16:29:11;2.53;;;1.70;;
1024;SDS011;501;48.214;11.350;2023-03-29T16:31:37;11.90;;;2.53;;
1024;SDS011;501;48.214;11.350;2023-03-29T16:34:04;5.60;;;2.27;;
1024;SDS011;501;48.214;11.350;2023-03-29T16:36:30;2.70;;;2.17;;
1024;SDS011;501;48.214;11.350;2023-03-29T16:38:57;2.83;;;2.17;;
1024;SDS011;501;48.214;11.350;2023-03-29T16:41:24;5.77;;;2.00;;
1024;SDS011;501;48.214;11.350;2023-03-29T16:43:49;3.73;;;2.10;;
1024;SDS011;501;48.214;11.350;2023-03-29T16:46:15;3.40;;;1.70;;
1024;SDS011;501;48.214;11.350;2023-03-29T16:48:41;2.60;;;1.60;;
1024;SDS011;501;48.214;11.350;2023-03-29T16:51:06;4.53;;;2.23;;
1024;SDS011;501;48.214;11.350;2023-03-29T16:53:33;2.40;;;2.20;;
1024;SDS011;501;48.214;11.350;2023-03-29T16:55:59;5.67;;;2.97;;
1024;SDS011;501;48.214;11.350;2023-03-29T16:58:26;4.47;;;2.00;;
1024;SDS011;501;48.214;11.350;2023-03-29T17:00:52;3.20;;;2.83;;
1024;SDS011;501;48.214;11.350;2023-03-29T17:03:18;4.80;;;2.10;;
1024;SDS011;501;48.214;11.350;2023-03-29T17:05:47;3.33;;;2.00;;
1024;SDS011;501;48.214;11.350;2023-03-29T17:08:14;4.63;;;1.57;;
1024;SDS011;501;48.214;11.350;2023-03-29T17:10:41;2.03;;;1.60;;
1024;SDS011;501;48.214;11.350;2023-03-29T17:13:07;4.03;;;2.63;;
1024;SDS011;501;48.214;11.350;2023-03-29T17:15:33;2.40;;;2.03;;
1024;SDS011;501;48.214;11.350;2023-03-29T17:17:59;3.30;;;2.70;;